createdAt,value
2024-02-19T00:01:34.873Z,3.13
2024-02-19T00:04:01.710Z,2.85
2024-02-19T00:06:28.533Z,2.90
2024-02-19T00:08:55.246Z,2.53
2024-02-19T00:11:22.088Z,2.92
2024-02-19T00:13:48.918Z,2.50
2024-02-19T00:16:15.740Z,3.00
2024-02-19T00:18:42.955Z,3.30
2024-02-19T00:21:09.789Z,2.65
2024-02-19T00:23:36.988Z,3.03
2024-02-19T00:26:04.785Z,3.00
2024-02-19T00:28:31.520Z,2.85
2024-02-19T00:30:58.327Z,2.80
2024-02-19T00:33:25.954Z,2.50
2024-02-19T00:35:53.002Z,2.40
2024-02-19T00:38:19.732Z,2.30
2024-02-19T00:40:46.996Z,3.00
2024-02-19T00:43:13.941Z,2.40
2024-02-19T00:45:40.833Z,3.00
2024-02-19T00:48:07.785Z,1.92
2024-02-19T00:50:34.523Z,2.92
2024-02-19T00:53:01.264Z,2.50
2024-02-19T00:55:28.054Z,2.78
2024-02-19T00:57:54.781Z,2.92
2024-02-19T01:00:21.553Z,1.80
2024-02-19T01:02:48.273Z,2.33
2024-02-19T01:05:15.013Z,2.80
2024-02-19T01:07:41.842Z,2.22
2024-02-19T01:10:09.111Z,2.20
2024-02-19T01:12:36.036Z,2.13
2024-02-19T01:15:02.937Z,2.15
2024-02-19T01:17:30.235Z,2.10
2024-02-19T01:19:58.330Z,1.63
2024-02-19T01:22:25.827Z,2.17
2024-02-19T01:24:52.699Z,2.10
2024-02-19T01:27:19.851Z,2.20
2024-02-19T01:29:47.531Z,2.92
2024-02-19T01:32:14.558Z,2.22
2024-02-19T01:34:41.577Z,2.95
2024-02-19T01:37:08.516Z,1.80
2024-02-19T01:39:35.438Z,1.90
2024-02-19T01:42:02.360Z,1.80
2024-02-19T01:44:29.071Z,1.75
2024-02-19T01:46:56.757Z,2.10
2024-02-19T01:49:23.916Z,1.70
2024-02-19T01:51:52.105Z,1.50
2024-02-19T01:54:19.753Z,1.50
2024-02-19T01:56:47.271Z,1.42
2024-02-19T01:59:17.103Z,1.52
2024-02-19T02:01:44.136Z,1.42
2024-02-19T02:04:12.759Z,1.65
2024-02-19T02:06:39.806Z,1.30
2024-02-19T02:09:08.386Z,1.10
2024-02-19T02:11:35.463Z,1.60
2024-02-19T02:14:02.303Z,1.27
2024-02-19T02:16:30.172Z,1.50
2024-02-19T02:18:57.716Z,1.17
2024-02-19T02:21:25.168Z,0.80
2024-02-19T02:23:52.122Z,1.40
2024-02-19T02:26:18.878Z,1.48
2024-02-19T02:28:45.639Z,1.10
2024-02-19T02:31:12.590Z,1.60
2024-02-19T02:33:39.980Z,0.95
2024-02-19T02:36:10.520Z,1.45
2024-02-19T02:38:37.458Z,1.30
2024-02-19T02:41:04.363Z,1.08
2024-02-19T02:43:31.097Z,1.20
2024-02-19T02:45:57.853Z,1.05
2024-02-19T02:48:24.867Z,1.35
2024-02-19T02:50:51.735Z,0.95
2024-02-19T02:53:18.591Z,1.20
2024-02-19T02:55:46.302Z,1.45
2024-02-19T02:58:13.218Z,0.80
2024-02-19T03:00:40.171Z,0.77
2024-02-19T03:03:07.026Z,1.05
2024-02-19T03:05:33.902Z,0.90
2024-02-19T03:08:00.769Z,1.40
2024-02-19T03:10:27.708Z,0.70
2024-02-19T03:12:54.589Z,1.13
2024-02-19T03:15:21.391Z,1.10
2024-02-19T03:17:48.329Z,0.85
2024-02-19T03:20:19.733Z,0.45
2024-02-19T03:22:46.749Z,0.73
2024-02-19T03:25:13.622Z,0.65
2024-02-19T03:27:41.365Z,1.42
2024-02-19T03:30:08.633Z,0.52
2024-02-19T03:32:35.418Z,0.55
2024-02-19T03:35:02.282Z,0.50
2024-02-19T03:37:29.058Z,0.45
2024-02-19T03:39:55.925Z,0.68
2024-02-19T03:42:22.693Z,0.70
2024-02-19T03:44:49.458Z,0.50
2024-02-19T03:47:16.213Z,0.63
2024-02-19T03:49:43.213Z,0.50
2024-02-19T03:52:10.262Z,0.77
2024-02-19T03:54:37.118Z,0.32
2024-02-19T03:57:05.253Z,0.65
2024-02-19T03:59:33.020Z,1.60
2024-02-19T04:02:01.012Z,0.52
2024-02-19T04:04:27.993Z,0.68
2024-02-19T04:06:55.206Z,0.50
2024-02-19T04:09:22.506Z,0.63
2024-02-19T04:11:49.379Z,0.82
2024-02-19T04:14:16.176Z,0.38
2024-02-19T04:19:10.662Z,0.28
2024-02-19T04:21:45.069Z,0.35
2024-02-19T04:24:13.403Z,0.70
2024-02-19T04:26:40.340Z,0.20
2024-02-19T04:29:07.234Z,0.32
2024-02-19T04:31:33.951Z,0.73
2024-02-19T04:34:00.818Z,0.90
2024-02-19T04:36:27.611Z,1.00
2024-02-19T04:38:54.372Z,0.40
2024-02-19T04:41:21.134Z,0.52
2024-02-19T04:43:47.853Z,0.65
2024-02-19T04:46:14.651Z,0.38
2024-02-19T04:48:41.592Z,0.30
2024-02-19T04:51:08.405Z,0.52
2024-02-19T04:53:35.371Z,0.75
2024-02-19T04:56:02.466Z,0.82
2024-02-19T04:58:29.312Z,0.32
2024-02-19T05:00:56.329Z,0.75
2024-02-19T05:03:23.135Z,0.50
2024-02-19T05:05:49.991Z,0.30
2024-02-19T05:08:16.753Z,0.28
2024-02-19T05:10:43.541Z,0.85
2024-02-19T05:13:10.434Z,0.55
2024-02-19T05:15:37.322Z,0.40
2024-02-19T05:18:04.687Z,0.82
2024-02-19T05:20:31.501Z,0.50
2024-02-19T05:22:58.254Z,0.20
2024-02-19T05:25:25.206Z,0.22
2024-02-19T05:27:53.631Z,0.30
2024-02-19T05:30:23.201Z,0.20
2024-02-19T05:32:49.966Z,0.30
2024-02-19T05:35:16.748Z,0.20
2024-02-19T05:37:43.630Z,0.35
2024-02-19T05:40:12.059Z,0.45
2024-02-19T05:42:38.946Z,0.30
2024-02-19T05:45:06.404Z,0.20
2024-02-19T05:47:33.175Z,0.50
2024-02-19T05:50:00.074Z,0.47
2024-02-19T05:52:26.890Z,0.50
2024-02-19T05:54:53.756Z,0.28
2024-02-19T05:57:20.487Z,0.32
2024-02-19T05:59:47.205Z,0.68
2024-02-19T06:02:14.043Z,0.28
2024-02-19T06:04:41.140Z,0.88
2024-02-19T06:07:08.213Z,0.32
2024-02-19T06:09:34.964Z,0.43
2024-02-19T06:12:01.656Z,0.25
2024-02-19T06:14:28.377Z,0.20
2024-02-19T06:16:55.151Z,0.40
2024-02-19T06:19:21.934Z,0.65
2024-02-19T06:21:48.783Z,0.40
2024-02-19T06:24:15.570Z,0.22
2024-02-19T06:26:42.289Z,0.65
2024-02-19T06:29:12.147Z,0.30
2024-02-19T06:31:39.060Z,1.05
2024-02-19T06:34:06.260Z,0.82
2024-02-19T06:36:33.353Z,0.30
2024-02-19T06:39:00.056Z,0.38
2024-02-19T06:41:29.460Z,0.55
2024-02-19T06:43:57.730Z,0.40
2024-02-19T06:46:24.590Z,0.20
2024-02-19T06:48:51.503Z,1.20
2024-02-19T06:51:19.074Z,0.30
2024-02-19T06:53:45.831Z,0.85
2024-02-19T06:56:13.538Z,0.22
2024-02-19T06:58:40.302Z,0.40
2024-02-19T07:01:07.101Z,0.32
2024-02-19T07:03:34.399Z,0.60
2024-02-19T07:06:01.202Z,0.38
2024-02-19T07:08:27.997Z,0.40
2024-02-19T07:10:54.791Z,0.20
2024-02-19T07:13:21.673Z,0.47
2024-02-19T07:15:48.581Z,0.20
2024-02-19T07:18:15.402Z,0.43
2024-02-19T07:20:42.310Z,0.30
2024-02-19T07:23:09.104Z,0.30
2024-02-19T07:25:36.358Z,0.55
2024-02-19T07:28:03.280Z,0.30
2024-02-19T07:30:30.012Z,0.30
2024-02-19T07:32:57.001Z,0.40
2024-02-19T07:35:23.746Z,0.55
2024-02-19T07:37:50.698Z,0.32
2024-02-19T07:40:17.473Z,0.25
2024-02-19T07:42:44.310Z,0.30
2024-02-19T07:45:11.053Z,0.47
2024-02-19T07:47:38.177Z,0.32
2024-02-19T07:50:05.276Z,0.47
2024-02-19T07:52:32.089Z,0.40
2024-02-19T07:54:58.844Z,0.25
2024-02-19T07:57:25.589Z,0.22
2024-02-19T07:59:53.070Z,0.52
2024-02-19T08:02:19.933Z,0.98
2024-02-19T08:04:46.811Z,0.47
2024-02-19T08:07:13.797Z,0.30
2024-02-19T08:09:40.578Z,1.30
2024-02-19T08:12:07.664Z,0.70
2024-02-19T08:14:34.445Z,0.40
2024-02-19T08:17:01.198Z,1.10
2024-02-19T08:19:28.170Z,0.60
2024-02-19T08:21:57.765Z,0.75
2024-02-19T08:24:24.783Z,0.73
2024-02-19T08:26:51.598Z,0.57
2024-02-19T08:29:18.301Z,0.80
2024-02-19T08:31:45.051Z,0.82
2024-02-19T08:34:13.403Z,0.82
2024-02-19T08:36:41.339Z,0.70
2024-02-19T08:39:08.256Z,0.57
2024-02-19T08:41:35.082Z,0.95
2024-02-19T08:44:01.820Z,1.33
2024-02-19T08:46:28.621Z,0.40
2024-02-19T08:48:56.623Z,0.55
2024-02-19T08:51:25.037Z,1.00
2024-02-19T08:53:56.828Z,0.52
2024-02-19T08:56:26.609Z,0.90
2024-02-19T08:58:53.379Z,0.50
2024-02-19T09:01:20.552Z,0.30
2024-02-19T09:03:48.496Z,0.32
2024-02-19T09:06:15.826Z,0.40
2024-02-19T09:08:42.866Z,0.63
2024-02-19T09:11:09.879Z,0.45
2024-02-19T09:13:37.214Z,0.75
2024-02-19T09:16:04.384Z,0.95
2024-02-19T09:18:31.418Z,1.15
2024-02-19T09:20:58.215Z,1.00
2024-02-19T09:23:26.801Z,0.70
2024-02-19T09:25:55.707Z,2.15
2024-02-19T09:28:22.557Z,1.58
2024-02-19T09:30:49.334Z,0.90
2024-02-19T09:33:16.356Z,1.38
2024-02-19T09:35:43.294Z,1.10
2024-02-19T09:38:10.587Z,0.90
2024-02-19T09:40:38.088Z,0.98
2024-02-19T09:43:07.004Z,1.30
2024-02-19T09:45:34.120Z,1.00
2024-02-19T09:48:01.978Z,0.63
2024-02-19T09:50:29.992Z,1.38
2024-02-19T09:53:09.927Z,0.75
2024-02-19T09:55:37.253Z,1.05
2024-02-19T09:58:05.426Z,0.88
2024-02-19T10:00:32.704Z,0.93
2024-02-19T10:02:59.484Z,0.98
2024-02-19T10:05:26.289Z,1.60
2024-02-19T10:08:00.519Z,0.68
2024-02-19T10:10:29.416Z,0.95
2024-02-19T10:12:56.332Z,1.55
2024-02-19T10:15:23.171Z,1.13
2024-02-19T10:17:49.997Z,0.82
2024-02-19T10:20:16.842Z,0.65
2024-02-19T10:22:43.577Z,0.80
2024-02-19T10:25:13.129Z,1.02
2024-02-19T10:27:40.073Z,0.90
2024-02-19T10:30:13.483Z,1.08
2024-02-19T10:32:42.491Z,1.08
2024-02-19T10:35:09.488Z,0.40
2024-02-19T10:37:37.243Z,1.33
2024-02-19T10:40:09.823Z,0.55
2024-02-19T10:42:37.930Z,1.23
2024-02-19T10:45:05.165Z,0.90
2024-02-19T10:47:32.039Z,1.13
2024-02-19T10:50:00.431Z,1.15
2024-02-19T10:52:28.095Z,1.25
2024-02-19T10:55:05.856Z,0.70
2024-02-19T10:57:54.089Z,0.77
2024-02-19T11:00:28.593Z,1.38
2024-02-19T11:03:09.402Z,0.75
2024-02-19T11:05:41.687Z,1.33
2024-02-19T11:08:22.461Z,0.70
2024-02-19T11:10:50.534Z,0.60
2024-02-19T11:13:23.201Z,0.90
2024-02-19T11:15:50.296Z,0.52
2024-02-19T11:18:21.184Z,1.13
2024-02-19T11:20:49.093Z,1.38
2024-02-19T11:23:17.279Z,1.08
2024-02-19T11:25:45.501Z,1.33
2024-02-19T11:28:15.269Z,0.68
2024-02-19T11:30:42.229Z,1.13
2024-02-19T11:33:12.816Z,0.50
2024-02-19T11:35:44.451Z,1.13
2024-02-19T11:38:12.475Z,1.13
2024-02-19T11:40:39.513Z,1.02
2024-02-19T11:43:06.834Z,1.10
2024-02-19T11:45:35.114Z,1.33
2024-02-19T11:48:02.094Z,1.65
2024-02-19T11:50:32.927Z,0.73
2024-02-19T11:53:00.198Z,0.70
2024-02-19T11:55:30.629Z,0.50
2024-02-19T11:58:02.575Z,2.22
2024-02-19T12:00:33.733Z,1.02
2024-02-19T12:03:01.195Z,1.08
2024-02-19T12:05:28.516Z,1.33
2024-02-19T12:07:56.343Z,2.03
2024-02-19T12:10:23.670Z,1.45
2024-02-19T12:12:51.491Z,1.70
2024-02-19T12:15:20.425Z,1.58
2024-02-19T12:17:49.652Z,1.38
2024-02-19T12:20:17.157Z,1.17
2024-02-19T12:22:44.253Z,0.73
2024-02-19T12:25:13.338Z,1.42
2024-02-19T12:27:40.512Z,1.20
2024-02-19T12:30:08.289Z,0.55
2024-02-19T12:32:35.791Z,1.85
2024-02-19T12:35:03.076Z,1.50
2024-02-19T12:37:30.757Z,1.70
2024-02-19T12:39:57.892Z,1.85
2024-02-19T12:42:24.928Z,1.13
2024-02-19T12:44:51.860Z,0.57
2024-02-19T12:47:18.729Z,1.65
2024-02-19T12:49:45.567Z,1.63
2024-02-19T12:52:13.033Z,1.10
2024-02-19T12:54:42.923Z,1.52
2024-02-19T12:57:11.046Z,1.25
2024-02-19T12:59:38.201Z,1.73
2024-02-19T13:02:06.749Z,1.73
2024-02-19T13:04:33.719Z,0.65
2024-02-19T13:07:02.039Z,1.00
2024-02-19T13:09:28.903Z,1.70
2024-02-19T13:11:57.706Z,1.88
2024-02-19T13:14:26.033Z,0.60
2024-02-19T13:17:08.440Z,1.13
2024-02-19T13:19:39.935Z,0.70
2024-02-19T13:22:07.025Z,0.50
2024-02-19T13:24:33.904Z,0.75
2024-02-19T13:27:00.754Z,1.98
2024-02-19T13:29:27.673Z,1.10
2024-02-19T13:31:54.517Z,1.35
2024-02-19T13:34:22.271Z,0.93
2024-02-19T13:36:50.399Z,1.10
2024-02-19T13:39:22.060Z,1.10
2024-02-19T13:41:49.718Z,1.00
2024-02-19T13:44:16.918Z,1.10
2024-02-19T13:46:45.744Z,1.08
2024-02-19T13:49:12.998Z,0.85
2024-02-19T13:51:39.873Z,0.68
2024-02-19T13:54:07.553Z,0.55
2024-02-19T13:56:34.545Z,1.65
2024-02-19T13:59:01.338Z,0.93
2024-02-19T14:01:32.492Z,1.00
2024-02-19T14:04:01.156Z,1.85
2024-02-19T14:06:28.572Z,0.85
2024-02-19T14:08:55.467Z,0.82
2024-02-19T14:11:22.692Z,1.73
2024-02-19T14:13:57.724Z,1.10
2024-02-19T14:16:28.928Z,1.02
2024-02-19T14:18:56.095Z,1.25
2024-02-19T14:21:23.140Z,0.52
2024-02-19T14:23:50.586Z,2.30
2024-02-19T14:26:17.446Z,0.65
2024-02-19T14:28:44.368Z,1.63
2024-02-19T14:31:11.345Z,1.10
2024-02-19T14:33:38.107Z,1.35
2024-02-19T14:36:05.639Z,2.22
2024-02-19T14:38:32.626Z,0.68
2024-02-19T14:40:59.537Z,1.88
2024-02-19T14:43:26.465Z,1.17
2024-02-19T14:45:54.428Z,1.40
2024-02-19T14:48:21.378Z,1.00
2024-02-19T14:50:48.386Z,1.75
2024-02-19T14:53:15.215Z,0.85
2024-02-19T14:55:42.053Z,1.10
2024-02-19T14:58:10.492Z,0.57
2024-02-19T15:00:37.508Z,1.13
2024-02-19T15:03:11.175Z,1.80
2024-02-19T15:05:39.103Z,0.75
2024-02-19T15:08:08.391Z,1.27
2024-02-19T15:10:35.673Z,0.77
2024-02-19T15:13:03.738Z,1.13
2024-02-19T15:15:30.611Z,1.40
2024-02-19T15:17:57.807Z,1.95
2024-02-19T15:20:24.943Z,1.40
2024-02-19T15:22:52.136Z,1.95
2024-02-19T15:25:20.078Z,1.20
2024-02-19T15:27:47.865Z,1.50
2024-02-19T15:30:16.253Z,0.95
2024-02-19T15:32:43.021Z,1.67
2024-02-19T15:35:10.171Z,1.00
2024-02-19T15:37:37.186Z,1.27
2024-02-19T15:40:04.336Z,1.02
2024-02-19T15:42:37.685Z,0.93
2024-02-19T15:45:05.415Z,1.35
2024-02-19T15:47:32.216Z,2.72
2024-02-19T15:50:00.535Z,1.95
2024-02-19T15:52:29.194Z,1.67
2024-02-19T15:54:56.341Z,1.25
2024-02-19T15:57:23.166Z,1.92
2024-02-19T15:59:50.140Z,1.00
2024-02-19T16:02:16.970Z,1.63
2024-02-19T16:04:44.043Z,1.50
2024-02-19T16:07:11.302Z,3.33
2024-02-19T16:09:38.264Z,1.00
2024-02-19T16:12:07.329Z,1.25
2024-02-19T16:14:38.334Z,2.22
2024-02-19T16:17:05.681Z,1.70
2024-02-19T16:19:32.534Z,1.45
2024-02-19T16:21:59.413Z,1.80
2024-02-19T16:24:28.950Z,1.30
2024-02-19T16:26:55.850Z,2.08
2024-02-19T16:29:24.336Z,1.60
2024-02-19T16:31:51.167Z,1.77
2024-02-19T16:34:19.161Z,1.90
2024-02-19T16:36:46.076Z,1.77
2024-02-19T16:39:13.068Z,2.88
2024-02-19T16:41:40.031Z,1.88
2024-02-19T16:44:06.771Z,1.13
2024-02-19T16:46:33.780Z,1.75
2024-02-19T16:49:00.713Z,1.90
2024-02-19T16:51:27.760Z,1.40
2024-02-19T16:53:58.121Z,1.65
2024-02-19T16:56:27.153Z,2.25
2024-02-19T16:58:54.033Z,1.00
2024-02-19T17:01:20.954Z,1.33
2024-02-19T17:03:48.116Z,1.50
2024-02-19T17:06:15.070Z,2.25
2024-02-19T17:08:42.320Z,1.50
2024-02-19T17:11:09.404Z,1.48
2024-02-19T17:13:37.741Z,1.55
2024-02-19T17:16:05.376Z,1.20
2024-02-19T17:18:33.049Z,1.00
2024-02-19T17:21:00.130Z,1.33
2024-02-19T17:23:26.928Z,1.13
2024-02-19T17:25:53.826Z,2.22
2024-02-19T17:28:22.753Z,1.60
2024-02-19T17:30:49.610Z,1.95
2024-02-19T17:33:16.493Z,1.48
2024-02-19T17:35:45.594Z,1.40
2024-02-19T17:38:12.939Z,3.10
2024-02-19T17:40:39.778Z,1.42
2024-02-19T17:43:06.717Z,1.42
2024-02-19T17:45:33.453Z,1.48
2024-02-19T17:48:00.545Z,1.40
2024-02-19T17:50:27.507Z,1.33
2024-02-19T17:52:54.254Z,1.48
2024-02-19T17:55:21.317Z,2.35
2024-02-19T17:57:49.209Z,1.90
2024-02-19T18:00:16.931Z,2.63
2024-02-19T18:02:44.497Z,1.65
2024-02-19T18:05:11.398Z,1.98
2024-02-19T18:07:38.280Z,1.70
2024-02-19T18:10:05.669Z,2.13
2024-02-19T18:12:32.676Z,2.42
2024-02-19T18:15:00.043Z,2.60
2024-02-19T18:17:27.724Z,1.35
2024-02-19T18:19:55.563Z,2.30
2024-02-19T18:22:22.997Z,1.65
2024-02-19T18:24:51.675Z,2.00
2024-02-19T18:27:19.230Z,2.22
2024-02-19T18:29:46.223Z,1.65
2024-02-19T18:32:15.605Z,2.08
2024-02-19T18:34:46.466Z,1.83
2024-02-19T18:37:13.323Z,1.80
2024-02-19T18:39:40.082Z,1.77
2024-02-19T18:42:09.477Z,1.73
2024-02-19T18:44:36.426Z,2.30
2024-02-19T18:47:06.061Z,1.95
2024-02-19T18:49:33.682Z,2.78
2024-02-19T18:52:02.349Z,1.42
2024-02-19T18:54:32.046Z,1.70
2024-02-19T18:57:02.412Z,1.67
2024-02-19T18:59:32.463Z,1.63
2024-02-19T19:02:09.652Z,2.42
2024-02-19T19:04:40.317Z,1.77
2024-02-19T19:07:08.757Z,2.70
2024-02-19T19:09:40.872Z,2.13
2024-02-19T19:12:09.561Z,1.98
2024-02-19T19:14:38.639Z,1.45
2024-02-19T19:17:10.543Z,2.40
2024-02-19T19:19:41.542Z,2.20
2024-02-19T19:22:10.749Z,2.13
2024-02-19T19:24:38.914Z,2.30
2024-02-19T19:27:09.752Z,1.92
2024-02-19T19:29:37.717Z,1.40
2024-02-19T19:32:06.333Z,2.22
2024-02-19T19:34:34.424Z,1.60
2024-02-19T19:37:02.527Z,1.55
2024-02-19T19:39:30.253Z,2.08
2024-02-19T19:41:57.976Z,2.55
2024-02-19T19:44:25.505Z,2.50
2024-02-19T19:46:53.078Z,1.83
2024-02-19T19:49:23.126Z,1.67
2024-02-19T19:51:53.630Z,1.90
2024-02-19T19:54:21.612Z,2.33
2024-02-19T19:56:49.293Z,2.35
2024-02-19T19:59:17.148Z,2.25
2024-02-19T20:01:45.436Z,2.08
2024-02-19T20:04:15.513Z,1.80
2024-02-19T20:06:43.203Z,1.92
2024-02-19T20:09:10.185Z,2.45
2024-02-19T20:11:37.121Z,2.90
2024-02-19T20:14:04.298Z,1.75
2024-02-19T20:16:31.184Z,1.98
2024-02-19T20:18:58.468Z,3.03
2024-02-19T20:21:25.677Z,2.13
2024-02-19T20:23:54.564Z,2.30
2024-02-19T20:26:21.498Z,1.73
2024-02-19T20:28:48.392Z,1.50
2024-02-19T20:31:15.520Z,2.13
2024-02-19T20:33:42.533Z,2.10
2024-02-19T20:36:12.157Z,3.85
2024-02-19T20:38:39.849Z,1.45
2024-02-19T20:41:06.841Z,1.40
2024-02-19T20:43:35.086Z,2.60
2024-02-19T20:46:02.243Z,1.83
2024-02-19T20:48:29.243Z,2.20
2024-02-19T20:50:56.190Z,3.35
2024-02-19T20:53:23.006Z,2.40
2024-02-19T20:55:49.942Z,2.30
2024-02-19T20:58:17.547Z,1.90
2024-02-19T21:00:44.580Z,2.83
2024-02-19T21:03:11.518Z,1.98
2024-02-19T21:05:38.460Z,2.42
2024-02-19T21:08:06.346Z,2.25
2024-02-19T21:10:34.632Z,2.10
2024-02-19T21:13:02.183Z,2.63
2024-02-19T21:15:29.617Z,2.03
2024-02-19T21:17:56.642Z,2.70
2024-02-19T21:20:23.720Z,2.85
2024-02-19T21:22:51.971Z,2.20
2024-02-19T21:25:19.307Z,1.80
2024-02-19T21:27:46.467Z,2.78
2024-02-19T21:30:13.829Z,2.00
2024-02-19T21:32:40.923Z,1.88
2024-02-19T21:35:11.109Z,2.03
2024-02-19T21:37:40.165Z,1.60
2024-02-19T21:40:10.185Z,2.00
2024-02-19T21:42:39.130Z,2.17
2024-02-19T21:45:09.952Z,2.72
2024-02-19T21:47:37.904Z,2.33
2024-02-19T21:50:10.676Z,2.03
2024-02-19T21:52:38.617Z,2.38
2024-02-19T21:55:07.728Z,1.95
2024-02-19T21:57:38.655Z,2.70
2024-02-19T22:00:06.931Z,2.67
2024-02-19T22:02:33.946Z,1.95
2024-02-19T22:05:01.028Z,2.60
2024-02-19T22:07:32.177Z,1.95
2024-02-19T22:10:02.505Z,2.03
2024-02-19T22:12:33.410Z,1.95
2024-02-19T22:15:03.716Z,1.95
2024-02-19T22:17:30.655Z,2.17
2024-02-19T22:19:57.817Z,1.95
2024-02-19T22:22:25.145Z,2.47
2024-02-19T22:24:52.275Z,2.00
2024-02-19T22:27:19.327Z,2.67
2024-02-19T22:29:46.223Z,2.22
2024-02-19T22:32:13.197Z,2.20
2024-02-19T22:34:46.685Z,1.92
2024-02-19T22:37:14.922Z,2.00
2024-02-19T22:39:46.007Z,2.78
2024-02-19T22:42:13.504Z,1.98
2024-02-19T22:44:41.674Z,1.50
2024-02-19T22:47:08.683Z,2.05
2024-02-19T22:49:39.038Z,1.88
2024-02-19T22:52:07.283Z,2.38
2024-02-19T22:54:34.788Z,1.88
2024-02-19T22:57:02.445Z,2.05
2024-02-19T22:59:29.428Z,1.75
2024-02-19T23:01:56.530Z,2.38
2024-02-19T23:04:23.738Z,2.65
2024-02-19T23:06:50.788Z,1.70
2024-02-19T23:09:17.849Z,1.52
2024-02-19T23:11:44.724Z,2.28
2024-02-19T23:14:11.684Z,2.10
2024-02-19T23:16:39.467Z,2.20
2024-02-19T23:19:07.017Z,2.50
2024-02-19T23:21:34.759Z,2.63
2024-02-19T23:24:01.658Z,2.35
2024-02-19T23:26:28.587Z,2.83
2024-02-19T23:28:55.458Z,1.92
2024-02-19T23:31:23.622Z,2.00
2024-02-19T23:33:50.969Z,1.67
2024-02-19T23:36:18.090Z,1.88
2024-02-19T23:38:45.780Z,1.55
2024-02-19T23:41:12.831Z,1.77
2024-02-19T23:43:39.868Z,3.15
2024-02-19T23:46:06.944Z,2.78
2024-02-19T23:48:34.247Z,2.47
2024-02-19T23:51:01.300Z,2.25
2024-02-19T23:53:28.345Z,1.95
2024-02-19T23:55:55.798Z,2.50
2024-02-19T23:58:26.143Z,3.03
